createdAt,value
2023-02-02T00:01:29.212Z,13.57
2023-02-02T00:03:57.952Z,12.10
2023-02-02T00:06:28.684Z,13.90
2023-02-02T00:08:59.448Z,11.83
2023-02-02T00:11:28.438Z,14.30
2023-02-02T00:13:56.806Z,14.83
2023-02-02T00:16:40.337Z,13.17
2023-02-02T00:19:10.818Z,13.00
2023-02-02T00:21:39.523Z,15.43
2023-02-02T00:24:10.445Z,14.00
2023-02-02T00:26:40.200Z,11.57
2023-02-02T00:29:12.493Z,10.37
2023-02-02T00:31:40.856Z,12.67
2023-02-02T00:34:10.842Z,13.07
2023-02-02T00:36:39.327Z,14.43
2023-02-02T00:39:09.572Z,13.37
2023-02-02T00:41:37.825Z,9.73
2023-02-02T00:44:23.792Z,14.33
2023-02-02T00:46:55.318Z,17.33
2023-02-02T00:49:24.638Z,15.00
2023-02-02T00:51:53.353Z,15.07
2023-02-02T00:54:23.422Z,12.67
2023-02-02T00:56:53.748Z,15.00
2023-02-02T00:59:22.320Z,14.67
2023-02-02T01:01:50.866Z,11.03
2023-02-02T01:04:19.750Z,13.07
2023-02-02T01:06:48.872Z,14.93
2023-02-02T01:09:17.233Z,14.87
2023-02-02T01:11:47.067Z,12.00
2023-02-02T01:14:15.606Z,16.53
2023-02-02T01:16:44.250Z,12.93
2023-02-02T01:19:14.890Z,13.53
2023-02-02T01:21:46.131Z,14.67
2023-02-02T01:24:14.539Z,14.63
2023-02-02T01:26:43.060Z,15.27
2023-02-02T01:29:13.324Z,17.10
2023-02-02T01:31:42.290Z,14.77
2023-02-02T01:34:11.930Z,12.73
2023-02-02T01:36:40.402Z,14.87
2023-02-02T01:39:08.794Z,11.93
2023-02-02T01:41:37.273Z,14.83
2023-02-02T01:44:07.642Z,14.60
2023-02-02T01:46:38.329Z,15.57
2023-02-02T01:49:13.715Z,15.73
2023-02-02T01:51:49.200Z,13.27
2023-02-02T01:54:24.486Z,12.53
2023-02-02T01:56:57.362Z,14.40
2023-02-02T01:59:27.544Z,15.57
2023-02-02T02:01:58.236Z,13.90
2023-02-02T02:04:30.112Z,13.03
2023-02-02T02:06:58.751Z,17.00
2023-02-02T02:09:27.083Z,13.90
2023-02-02T02:11:55.971Z,13.30
2023-02-02T02:14:42.386Z,14.10
2023-02-02T02:17:38.220Z,13.00
2023-02-02T02:20:57.298Z,12.03
2023-02-02T02:24:08.463Z,12.20
2023-02-02T02:26:57.300Z,12.97
2023-02-02T02:29:48.525Z,13.23
2023-02-02T02:32:36.578Z,11.23
2023-02-02T02:35:13.251Z,12.57
2023-02-02T02:37:48.333Z,12.30
2023-02-02T02:40:23.214Z,14.93
2023-02-02T02:42:58.304Z,13.20
2023-02-02T02:45:29.261Z,13.23
2023-02-02T02:47:59.762Z,11.67
2023-02-02T02:50:28.861Z,14.53
2023-02-02T02:53:07.703Z,14.67
2023-02-02T02:55:47.609Z,15.63
2023-02-02T02:58:20.854Z,13.27
2023-02-02T03:00:59.881Z,10.17
2023-02-02T03:03:55.673Z,11.40
2023-02-02T03:06:29.407Z,14.23
2023-02-02T03:09:01.923Z,11.97
2023-02-02T03:11:30.396Z,12.40
2023-02-02T03:13:59.067Z,12.07
2023-02-02T03:16:29.886Z,12.73
2023-02-02T03:18:59.665Z,10.00
2023-02-02T03:21:27.917Z,13.63
2023-02-02T03:23:56.475Z,10.70
2023-02-02T03:26:25.111Z,10.43
2023-02-02T03:28:54.719Z,10.50
2023-02-02T03:31:23.182Z,12.37
2023-02-02T03:33:51.628Z,13.33
2023-02-02T03:36:21.282Z,14.53
2023-02-02T03:38:49.727Z,9.80
2023-02-02T03:41:18.054Z,12.87
2023-02-02T03:43:46.405Z,12.60
2023-02-02T03:46:14.985Z,10.07
2023-02-02T03:48:43.533Z,10.57
2023-02-02T03:51:14.019Z,8.87
2023-02-02T03:53:47.557Z,9.50
2023-02-02T03:56:16.807Z,11.10
2023-02-02T03:58:46.484Z,10.87
2023-02-02T04:01:15.801Z,11.70
2023-02-02T04:03:46.261Z,11.90
2023-02-02T04:06:14.610Z,12.07
2023-02-02T04:08:44.267Z,15.07
2023-02-02T04:11:12.959Z,9.37
2023-02-02T04:13:43.394Z,9.67
2023-02-02T04:16:13.041Z,9.77
2023-02-02T04:18:41.507Z,9.90
2023-02-02T04:21:09.917Z,13.47
2023-02-02T04:23:38.937Z,9.87
2023-02-02T04:26:08.734Z,8.00
2023-02-02T04:28:37.382Z,8.87
2023-02-02T04:31:05.890Z,10.57
2023-02-02T04:33:35.589Z,8.70
2023-02-02T04:36:04.085Z,9.83
2023-02-02T04:38:32.418Z,9.93
2023-02-02T04:41:01.321Z,13.07
2023-02-02T04:43:31.387Z,8.10
2023-02-02T04:46:00.944Z,8.57
2023-02-02T04:48:31.350Z,11.00
2023-02-02T04:51:01.451Z,11.97
2023-02-02T04:53:30.549Z,8.10
2023-02-02T04:55:59.583Z,14.23
2023-02-02T04:58:27.959Z,13.53
2023-02-02T05:00:57.705Z,11.47
2023-02-02T05:03:26.108Z,9.47
2023-02-02T05:06:05.378Z,8.43
2023-02-02T05:08:33.949Z,10.70
2023-02-02T05:11:06.837Z,12.83
2023-02-02T05:13:35.229Z,8.30
2023-02-02T05:16:05.670Z,14.13
2023-02-02T05:18:34.412Z,14.37
2023-02-02T05:21:06.279Z,11.20
2023-02-02T05:23:34.632Z,10.60
2023-02-02T05:26:05.989Z,14.90
2023-02-02T05:28:36.242Z,12.03
2023-02-02T05:31:08.708Z,10.83
2023-02-02T05:33:37.125Z,11.33
2023-02-02T05:36:06.282Z,8.77
2023-02-02T05:38:35.053Z,10.57
2023-02-02T05:41:06.212Z,10.57
2023-02-02T05:43:35.156Z,9.33
2023-02-02T05:46:04.049Z,11.20
2023-02-02T05:48:36.313Z,9.30
2023-02-02T05:51:07.175Z,8.57
2023-02-02T05:53:35.509Z,10.57
2023-02-02T05:56:04.752Z,8.70
2023-02-02T05:58:33.415Z,9.53
2023-02-02T06:01:22.652Z,9.93
2023-02-02T06:03:52.818Z,12.67
2023-02-02T06:06:21.433Z,14.93
2023-02-02T06:08:49.908Z,11.20
2023-02-02T06:11:19.673Z,13.47
2023-02-02T06:13:48.024Z,8.63
2023-02-02T06:16:16.553Z,11.30
2023-02-02T06:18:45.195Z,13.70
2023-02-02T06:21:15.145Z,13.57
2023-02-02T06:23:45.811Z,12.37
2023-02-02T06:26:14.412Z,17.03
2023-02-02T06:28:43.189Z,12.37
2023-02-02T06:31:12.788Z,10.90
2023-02-02T06:33:41.239Z,10.47
2023-02-02T06:36:09.719Z,9.87
2023-02-02T06:38:39.645Z,10.80
2023-02-02T06:41:08.056Z,11.43
2023-02-02T06:43:36.379Z,11.17
2023-02-02T22:31:05.238Z,8.07
2023-02-02T22:33:33.882Z,8.70
2023-02-02T22:36:02.972Z,6.67
2023-02-02T22:38:34.125Z,6.97
2023-02-02T22:41:03.560Z,6.13
2023-02-02T22:43:34.720Z,4.87
2023-02-02T22:46:04.630Z,7.33
2023-02-02T22:48:33.534Z,7.87
2023-02-02T22:51:02.422Z,7.23
2023-02-02T22:53:32.423Z,8.10
2023-02-02T22:56:00.863Z,7.37
2023-02-02T22:58:29.236Z,4.90
2023-02-02T23:00:57.643Z,6.07
2023-02-02T23:03:27.475Z,6.27
2023-02-02T23:05:55.849Z,6.40
2023-02-02T23:08:24.386Z,5.57
2023-02-02T23:10:52.695Z,5.97
2023-02-02T23:13:21.290Z,8.43
2023-02-02T23:15:49.576Z,5.43
2023-02-02T23:18:17.899Z,5.70
2023-02-02T23:20:48.777Z,7.00
2023-02-02T23:23:17.091Z,8.53
2023-02-02T23:25:45.418Z,6.40
2023-02-02T23:28:13.782Z,6.00
2023-02-02T23:30:42.325Z,6.80
2023-02-02T23:33:10.972Z,6.30
2023-02-02T23:35:39.405Z,5.97
2023-02-02T23:38:09.256Z,8.00
2023-02-02T23:40:37.561Z,6.30
2023-02-02T23:43:06.670Z,7.43
2023-02-02T23:45:35.444Z,8.63
2023-02-02T23:48:06.336Z,6.87
2023-02-02T23:50:37.819Z,6.70
2023-02-02T23:53:09.289Z,5.30
2023-02-02T23:55:38.284Z,5.03
2023-02-02T23:58:07.787Z,6.40
